sensor_id;sensor_type;location;lat;lon;timestamp;pressure;altitude;pressure_sealevel;temperature;humidity
79127;BME280;68528;48.814;8.904;2023-04-30T00:02:07;96717.84;;;8.81;83.47
79127;BME280;68528;48.814;8.904;2023-04-30T00:04:33;96712.06;;;8.83;83.72
79127;BME280;68528;48.814;8.904;2023-04-30T00:06:58;96702.25;;;8.82;83.57
79127;BME280;68528;48.814;8.904;2023-04-30T00:09:24;96707.63;;;8.78;83.63
79127;BME280;68528;48.814;8.904;2023-04-30T00:11:49;96704.44;;;8.76;83.45
79127;BME280;68528;48.814;8.904;2023-04-30T00:14:15;96702.84;;;8.75;83.33
79127;BME280;68528;48.814;8.904;2023-04-30T00:16:42;96704.44;;;8.76;82.95
79127;BME280;68528;48.814;8.904;2023-04-30T00:19:10;96707.41;;;8.71;83.82
79127;BME280;68528;48.814;8.904;2023-04-30T00:21:40;96708.31;;;8.75;83.18
79127;BME280;68528;48.814;8.904;2023-04-30T00:24:09;96711.47;;;8.77;83.65
79127;BME280;68528;48.814;8.904;2023-04-30T00:26:34;96708.31;;;8.75;83.39
79127;BME280;68528;48.814;8.904;2023-04-30T00:29:00;96712.97;;;8.75;83.55
79127;BME280;68528;48.814;8.904;2023-04-30T00:31:25;96709.69;;;8.69;83.31
79127;BME280;68528;48.814;8.904;2023-04-30T00:33:52;96712.50;;;8.73;83.45
79127;BME280;68528;48.814;8.904;2023-04-30T00:36:17;96720.59;;;8.69;83.07
79127;BME280;68528;48.814;8.904;2023-04-30T00:38:43;96714.25;;;8.65;83.49
79127;BME280;68528;48.814;8.904;2023-04-30T00:41:08;96724.69;;;8.75;82.75
79127;BME280;68528;48.814;8.904;2023-04-30T00:43:34;96726.88;;;8.69;82.92
79127;BME280;68528;48.814;8.904;2023-04-30T00:46:00;96724.25;;;8.61;83.25
79127;BME280;68528;48.814;8.904;2023-04-30T00:48:27;96725.38;;;8.60;83.61
79127;BME280;68528;48.814;8.904;2023-04-30T00:50:53;96720.38;;;8.62;83.19
79127;BME280;68528;48.814;8.904;2023-04-30T00:53:18;96715.16;;;8.57;83.44
79127;BME280;68528;48.814;8.904;2023-04-30T00:55:44;96719.59;;;8.61;83.16
79127;BME280;68528;48.814;8.904;2023-04-30T00:58:10;96719.03;;;8.56;83.34
79127;BME280;68528;48.814;8.904;2023-04-30T01:00:36;96713.13;;;8.54;83.32
79127;BME280;68528;48.814;8.904;2023-04-30T01:03:01;96709.72;;;8.57;83.23
79127;BME280;68528;48.814;8.904;2023-04-30T01:05:26;96715.63;;;8.59;83.38
79127;BME280;68528;48.814;8.904;2023-04-30T01:07:53;96719.94;;;8.60;83.22
79127;BME280;68528;48.814;8.904;2023-04-30T01:10:22;96715.63;;;8.59;82.64
79127;BME280;68528;48.814;8.904;2023-04-30T01:13:07;96724.94;;;8.58;83.30
79127;BME280;68528;48.814;8.904;2023-04-30T01:15:49;96724.13;;;8.57;82.62
79127;BME280;68528;48.814;8.904;2023-04-30T01:18:46;96710.38;;;8.54;82.80
79127;BME280;68528;48.814;8.904;2023-04-30T01:21:13;96708.22;;;8.47;83.22
79127;BME280;68528;48.814;8.904;2023-04-30T01:29:37;96700.63;;;8.53;82.37
79127;BME280;68528;48.814;8.904;2023-04-30T01:32:03;96709.84;;;8.48;82.37
79127;BME280;68528;48.814;8.904;2023-04-30T01:34:29;96708.13;;;8.44;82.92
79127;BME280;68528;48.814;8.904;2023-04-30T01:39:47;96704.03;;;8.38;83.59
79127;BME280;68528;48.814;8.904;2023-04-30T01:42:57;96704.25;;;8.45;82.78
79127;BME280;68528;48.814;8.904;2023-04-30T01:53:07;96704.72;;;8.35;83.11
79127;BME280;68528;48.814;8.904;2023-04-30T01:55:57;96697.69;;;8.34;83.11
79127;BME280;68528;48.814;8.904;2023-04-30T01:58:44;96702.00;;;8.35;83.35
79127;BME280;68528;48.814;8.904;2023-04-30T02:01:27;96696.88;;;8.21;83.90
79127;BME280;68528;48.814;8.904;2023-04-30T02:03:53;96696.53;;;8.23;84.12
79127;BME280;68528;48.814;8.904;2023-04-30T02:06:19;96689.00;;;8.08;84.28
79127;BME280;68528;48.814;8.904;2023-04-30T02:08:44;96692.41;;;8.05;84.41
79127;BME280;68528;48.814;8.904;2023-04-30T02:11:09;96693.56;;;8.04;84.51
79127;BME280;68528;48.814;8.904;2023-04-30T02:13:36;96685.59;;;7.99;84.65
79127;BME280;68528;48.814;8.904;2023-04-30T02:16:02;96691.41;;;7.97;84.99
79127;BME280;68528;48.814;8.904;2023-04-30T02:18:28;96697.19;;;7.96;85.13
79127;BME280;68528;48.814;8.904;2023-04-30T02:20:53;96691.75;;;7.96;85.12
79127;BME280;68528;48.814;8.904;2023-04-30T02:23:19;96689.47;;;7.98;84.60
79127;BME280;68528;48.814;8.904;2023-04-30T02:25:44;96693.31;;;7.97;84.71
79127;BME280;68528;48.814;8.904;2023-04-30T02:28:14;96691.19;;;8.02;84.65
79127;BME280;68528;48.814;8.904;2023-04-30T02:30:41;96694.78;;;7.94;84.72
79127;BME280;68528;48.814;8.904;2023-04-30T02:33:07;96696.75;;;7.93;84.77
79127;BME280;68528;48.814;8.904;2023-04-30T02:35:39;96700.84;;;7.87;84.93
79127;BME280;68528;48.814;8.904;2023-04-30T02:38:05;96698.56;;;7.89;84.95
79127;BME280;68528;48.814;8.904;2023-04-30T02:40:30;96705.47;;;7.87;84.83
79127;BME280;68528;48.814;8.904;2023-04-30T02:42:56;96700.94;;;7.91;84.86
79127;BME280;68528;48.814;8.904;2023-04-30T02:45:21;96702.50;;;7.92;84.78
79127;BME280;68528;48.814;8.904;2023-04-30T02:47:47;96701.75;;;7.91;84.55
79127;BME280;68528;48.814;8.904;2023-04-30T02:50:15;96702.19;;;7.93;84.54
79127;BME280;68528;48.814;8.904;2023-04-30T02:52:40;96706.75;;;7.89;84.90
79127;BME280;68528;48.814;8.904;2023-04-30T02:55:07;96699.47;;;7.93;84.98
79127;BME280;68528;48.814;8.904;2023-04-30T02:57:33;96700.59;;;7.92;84.55
79127;BME280;68528;48.814;8.904;2023-04-30T03:00:00;96692.19;;;7.98;84.25
79127;BME280;68528;48.814;8.904;2023-04-30T03:02:25;96698.00;;;7.96;84.72
79127;BME280;68528;48.814;8.904;2023-04-30T03:04:51;96697.66;;;7.85;85.13
79127;BME280;68528;48.814;8.904;2023-04-30T03:07:17;96686.25;;;7.83;84.90
79127;BME280;68528;48.814;8.904;2023-04-30T03:09:43;96689.13;;;7.87;84.42
79127;BME280;68528;48.814;8.904;2023-04-30T03:12:08;96693.88;;;7.78;85.10
79127;BME280;68528;48.814;8.904;2023-04-30T03:14:34;96694.66;;;7.66;85.17
79127;BME280;68528;48.814;8.904;2023-04-30T03:16:59;96698.25;;;7.58;85.83
79127;BME280;68528;48.814;8.904;2023-04-30T03:19:27;96691.69;;;7.71;85.65
79127;BME280;68528;48.814;8.904;2023-04-30T03:21:53;96694.78;;;7.70;85.28
79127;BME280;68528;48.814;8.904;2023-04-30T03:24:19;96693.31;;;7.72;85.25
79127;BME280;68528;48.814;8.904;2023-04-30T03:26:45;96701.69;;;7.67;85.35
79127;BME280;68528;48.814;8.904;2023-04-30T03:29:31;96693.63;;;7.71;85.19
79127;BME280;68528;48.814;8.904;2023-04-30T03:31:56;96695.78;;;7.65;85.44
79127;BME280;68528;48.814;8.904;2023-04-30T03:34:22;96693.06;;;7.65;85.21
79127;BME280;68528;48.814;8.904;2023-04-30T03:36:48;96689.22;;;7.66;85.31
79127;BME280;68528;48.814;8.904;2023-04-30T03:39:14;96688.53;;;7.69;85.20
79127;BME280;68528;48.814;8.904;2023-04-30T03:41:40;96687.97;;;7.76;85.59
79127;BME280;68528;48.814;8.904;2023-04-30T03:44:06;96689.56;;;7.77;85.06
79127;BME280;68528;48.814;8.904;2023-04-30T03:46:53;96694.69;;;7.78;85.43
79127;BME280;68528;48.814;8.904;2023-04-30T03:49:19;96694.69;;;7.78;85.24
79127;BME280;68528;48.814;8.904;2023-04-30T03:51:44;96692.50;;;7.72;85.30
79127;BME280;68528;48.814;8.904;2023-04-30T03:54:10;96694.22;;;7.76;85.63
79127;BME280;68528;48.814;8.904;2023-04-30T03:56:36;96695.34;;;7.75;85.42
79127;BME280;68528;48.814;8.904;2023-04-30T03:59:02;96692.59;;;7.63;85.60
79127;BME280;68528;48.814;8.904;2023-04-30T04:01:30;96691.22;;;7.57;86.22
79127;BME280;68528;48.814;8.904;2023-04-30T04:04:18;96690.31;;;7.53;86.06
79127;BME280;68528;48.814;8.904;2023-04-30T04:06:43;96693.84;;;7.54;86.04
79127;BME280;68528;48.814;8.904;2023-04-30T04:09:09;96691.91;;;7.54;86.08
79127;BME280;68528;48.814;8.904;2023-04-30T04:11:34;96696.34;;;7.59;85.66
79127;BME280;68528;48.814;8.904;2023-04-30T04:14:00;96699.63;;;7.52;85.65
79127;BME280;68528;48.814;8.904;2023-04-30T04:16:25;96700.75;;;7.51;85.84
79127;BME280;68528;48.814;8.904;2023-04-30T04:18:51;96700.16;;;7.46;86.00
79127;BME280;68528;48.814;8.904;2023-04-30T04:21:17;96693.34;;;7.40;86.06
79127;BME280;68528;48.814;8.904;2023-04-30T04:23:42;96710.22;;;7.33;86.62
79127;BME280;68528;48.814;8.904;2023-04-30T04:26:08;96708.84;;;7.27;86.79
79127;BME280;68528;48.814;8.904;2023-04-30T04:28:35;96706.94;;;7.28;86.64
79127;BME280;68528;48.814;8.904;2023-04-30T04:31:01;96703.19;;;7.32;86.37
79127;BME280;68528;48.814;8.904;2023-04-30T04:33:27;96711.38;;;7.32;86.48
79127;BME280;68528;48.814;8.904;2023-04-30T04:35:53;96711.16;;;7.37;86.24
79127;BME280;68528;48.814;8.904;2023-04-30T04:38:19;96718.66;;;7.40;86.06
79127;BME280;68528;48.814;8.904;2023-04-30T04:40:53;96704.94;;;7.49;85.93
79127;BME280;68528;48.814;8.904;2023-04-30T04:43:21;96708.03;;;7.47;85.65
79127;BME280;68528;48.814;8.904;2023-04-30T04:45:47;96714.38;;;7.51;85.80
79127;BME280;68528;48.814;8.904;2023-04-30T04:48:13;96706.66;;;7.53;85.50
79127;BME280;68528;48.814;8.904;2023-04-30T04:50:42;96710.19;;;7.54;85.52
79127;BME280;68528;48.814;8.904;2023-04-30T04:53:07;96708.69;;;7.56;85.62
79127;BME280;68528;48.814;8.904;2023-04-30T04:55:33;96713.03;;;7.57;85.45
79127;BME280;68528;48.814;8.904;2023-04-30T04:57:59;96716.94;;;7.68;85.38
79127;BME280;68528;48.814;8.904;2023-04-30T05:00:25;96714.19;;;7.68;84.60
79127;BME280;68528;48.814;8.904;2023-04-30T05:02:52;96716.59;;;7.70;84.89
79127;BME280;68528;48.814;8.904;2023-04-30T05:05:17;96716.03;;;7.76;84.92
79127;BME280;68528;48.814;8.904;2023-04-30T05:07:43;96720.56;;;7.72;84.80
79127;BME280;68528;48.814;8.904;2023-04-30T05:10:08;96718.41;;;7.78;84.53
79127;BME280;68528;48.814;8.904;2023-04-30T05:12:35;96720.13;;;7.82;84.65
79127;BME280;68528;48.814;8.904;2023-04-30T05:15:00;96716.25;;;7.83;84.40
79127;BME280;68528;48.814;8.904;2023-04-30T05:17:26;96722.41;;;7.92;84.08
79127;BME280;68528;48.814;8.904;2023-04-30T05:19:51;96723.78;;;7.99;84.39
79127;BME280;68528;48.814;8.904;2023-04-30T05:22:18;96721.75;;;8.08;84.13
79127;BME280;68528;48.814;8.904;2023-04-30T05:24:43;96715.81;;;8.18;83.53
79127;BME280;68528;48.814;8.904;2023-04-30T05:27:09;96718.69;;;8.21;83.61
79127;BME280;68528;48.814;8.904;2023-04-30T05:29:35;96718.94;;;8.28;82.90
79127;BME280;68528;48.814;8.904;2023-04-30T05:32:02;96717.00;;;8.29;82.88
79127;BME280;68528;48.814;8.904;2023-04-30T05:34:28;96720.72;;;8.24;83.24
79127;BME280;68528;48.814;8.904;2023-04-30T05:36:56;96715.16;;;8.21;83.50
79127;BME280;68528;48.814;8.904;2023-04-30T05:39:22;96717.44;;;8.19;83.98
79127;BME280;68528;48.814;8.904;2023-04-30T05:41:47;96712.88;;;8.23;83.74
79127;BME280;68528;48.814;8.904;2023-04-30T05:44:28;96710.25;;;8.62;82.45
79127;BME280;68528;48.814;8.904;2023-04-30T05:47:00;96704.63;;;9.23;81.00
79127;BME280;68528;48.814;8.904;2023-04-30T05:49:26;96716.41;;;9.39;79.25
79127;BME280;68528;48.814;8.904;2023-04-30T05:51:51;96709.53;;;9.45;78.81
79127;BME280;68528;48.814;8.904;2023-04-30T05:54:22;96712.13;;;9.26;79.19
79127;BME280;68528;48.814;8.904;2023-04-30T05:56:52;96710.84;;;9.08;80.28
79127;BME280;68528;48.814;8.904;2023-04-30T05:59:20;96714.41;;;8.96;80.17
79127;BME280;68528;48.814;8.904;2023-04-30T06:01:50;96719.41;;;8.94;80.93
79127;BME280;68528;48.814;8.904;2023-04-30T06:04:27;96719.81;;;9.08;80.59
79127;BME280;68528;48.814;8.904;2023-04-30T06:10:25;96719.94;;;9.00;80.22
79127;BME280;68528;48.814;8.904;2023-04-30T06:12:50;96721.31;;;9.06;80.08
79127;BME280;68528;48.814;8.904;2023-04-30T06:15:19;96719.88;;;9.24;79.11
79127;BME280;68528;48.814;8.904;2023-04-30T06:18:07;96728.69;;;9.45;77.97
79127;BME280;68528;48.814;8.904;2023-04-30T06:20:33;96729.22;;;9.23;78.79
79127;BME280;68528;48.814;8.904;2023-04-30T06:23:00;96720.75;;;9.56;78.55
79127;BME280;68528;48.814;8.904;2023-04-30T06:25:27;96722.97;;;9.50;77.39
79127;BME280;68528;48.814;8.904;2023-04-30T06:27:53;96724.53;;;9.35;77.97
79127;BME280;68528;48.814;8.904;2023-04-30T06:34:10;96727.88;;;9.44;77.47
79127;BME280;68528;48.814;8.904;2023-04-30T06:36:36;96723.63;;;9.75;76.28
79127;BME280;68528;48.814;8.904;2023-04-30T06:39:01;96726.91;;;9.96;75.76
79127;BME280;68528;48.814;8.904;2023-04-30T06:41:27;96734.72;;;10.25;75.23
79127;BME280;68528;48.814;8.904;2023-04-30T06:43:52;96734.38;;;9.68;75.36
79127;BME280;68528;48.814;8.904;2023-04-30T06:46:18;96728.75;;;9.48;76.35
79127;BME280;68528;48.814;8.904;2023-04-30T06:48:43;96730.56;;;9.57;76.70
79127;BME280;68528;48.814;8.904;2023-04-30T06:51:09;96736.31;;;9.67;76.40
79127;BME280;68528;48.814;8.904;2023-04-30T06:53:45;96738.72;;;9.84;76.04
79127;BME280;68528;48.814;8.904;2023-04-30T06:56:50;96736.38;;;10.14;74.37
79127;BME280;68528;48.814;8.904;2023-04-30T06:59:38;96737.16;;;9.99;75.12
79127;BME280;68528;48.814;8.904;2023-04-30T07:02:09;96744.19;;;9.84;75.17
79127;BME280;68528;48.814;8.904;2023-04-30T07:04:37;96737.75;;;10.08;75.15
79127;BME280;68528;48.814;8.904;2023-04-30T07:07:10;96730.66;;;10.35;74.77
79127;BME280;68528;48.814;8.904;2023-04-30T07:10:11;96724.78;;;10.52;72.47
79127;BME280;68528;48.814;8.904;2023-04-30T07:12:37;96729.69;;;10.27;74.07
79127;BME280;68528;48.814;8.904;2023-04-30T07:15:02;96734.16;;;10.51;73.57
79127;BME280;68528;48.814;8.904;2023-04-30T07:17:50;96726.06;;;11.08;70.71
79127;BME280;68528;48.814;8.904;2023-04-30T07:20:16;96723.84;;;11.14;69.02
79127;BME280;68528;48.814;8.904;2023-04-30T07:22:42;96721.03;;;11.67;68.09
79127;BME280;68528;48.814;8.904;2023-04-30T07:25:10;96717.69;;;11.77;67.72
79127;BME280;68528;48.814;8.904;2023-04-30T07:27:57;96723.56;;;11.76;67.15
79127;BME280;68528;48.814;8.904;2023-04-30T07:30:25;96716.03;;;11.73;67.02
79127;BME280;68528;48.814;8.904;2023-04-30T07:32:53;96717.91;;;12.11;65.12
79127;BME280;68528;48.814;8.904;2023-04-30T07:35:19;96715.38;;;11.79;66.21
79127;BME280;68528;48.814;8.904;2023-04-30T07:37:44;96716.50;;;12.20;64.04
79127;BME280;68528;48.814;8.904;2023-04-30T07:40:10;96709.66;;;11.88;63.88
79127;BME280;68528;48.814;8.904;2023-04-30T07:43:04;96712.53;;;12.67;62.67
79127;BME280;68528;48.814;8.904;2023-04-30T07:45:52;96707.84;;;12.18;63.11
79127;BME280;68528;48.814;8.904;2023-04-30T07:48:18;96709.03;;;12.43;65.36
79127;BME280;68528;48.814;8.904;2023-04-30T07:50:46;96708.09;;;12.85;61.27
79127;BME280;68528;48.814;8.904;2023-04-30T07:53:12;96702.72;;;13.21;59.87
79127;BME280;68528;48.814;8.904;2023-04-30T07:55:37;96694.66;;;13.35;61.53
79127;BME280;68528;48.814;8.904;2023-04-30T07:58:03;96701.50;;;13.19;61.69
79127;BME280;68528;48.814;8.904;2023-04-30T08:03:39;96701.78;;;12.84;61.39
79127;BME280;68528;48.814;8.904;2023-04-30T08:06:05;96702.22;;;13.12;60.79
79127;BME280;68528;48.814;8.904;2023-04-30T08:08:32;96698.72;;;13.45;59.68
79127;BME280;68528;48.814;8.904;2023-04-30T08:10:58;96710.84;;;13.11;58.29
79127;BME280;68528;48.814;8.904;2023-04-30T08:13:24;96704.91;;;12.83;61.18
79127;BME280;68528;48.814;8.904;2023-04-30T08:15:50;96703.16;;;12.45;61.51
79127;BME280;68528;48.814;8.904;2023-04-30T08:18:15;96709.41;;;12.94;61.70
79127;BME280;68528;48.814;8.904;2023-04-30T08:20:41;96700.00;;;13.25;58.05
79127;BME280;68528;48.814;8.904;2023-04-30T08:23:06;96714.31;;;14.07;55.18
79127;BME280;68528;48.814;8.904;2023-04-30T08:25:32;96717.16;;;13.81;54.31
79127;BME280;68528;48.814;8.904;2023-04-30T08:27:58;96725.59;;;13.62;55.64
79127;BME280;68528;48.814;8.904;2023-04-30T08:30:24;96712.75;;;14.10;53.66
79127;BME280;68528;48.814;8.904;2023-04-30T08:32:49;96709.72;;;14.22;54.95
79127;BME280;68528;48.814;8.904;2023-04-30T08:35:15;96710.00;;;14.54;52.68
79127;BME280;68528;48.814;8.904;2023-04-30T08:37:50;96717.78;;;13.31;56.90
79127;BME280;68528;48.814;8.904;2023-04-30T08:40:29;96720.63;;;14.11;55.37
79127;BME280;68528;48.814;8.904;2023-04-30T08:53:05;96718.97;;;12.51;59.45
79127;BME280;68528;48.814;8.904;2023-04-30T08:55:33;96714.31;;;12.55;60.05
79127;BME280;68528;48.814;8.904;2023-04-30T08:58:08;96704.88;;;12.79;59.16
79127;BME280;68528;48.814;8.904;2023-04-30T09:00:58;96717.38;;;13.03;58.79
79127;BME280;68528;48.814;8.904;2023-04-30T09:03:24;96712.31;;;12.79;59.45
79127;BME280;68528;48.814;8.904;2023-04-30T09:05:49;96712.94;;;12.95;58.50
79127;BME280;68528;48.814;8.904;2023-04-30T09:08:18;96708.13;;;13.44;58.13
79127;BME280;68528;48.814;8.904;2023-04-30T09:10:44;96707.06;;;13.22;57.80
79127;BME280;68528;48.814;8.904;2023-04-30T09:13:10;96708.16;;;12.88;58.28
79127;BME280;68528;48.814;8.904;2023-04-30T09:15:37;96707.78;;;12.63;59.03
79127;BME280;68528;48.814;8.904;2023-04-30T09:18:16;96707.94;;;12.74;58.60
79127;BME280;68528;48.814;8.904;2023-04-30T09:20:55;96712.00;;;12.84;56.37
79127;BME280;68528;48.814;8.904;2023-04-30T09:23:22;96712.41;;;13.12;55.44
79127;BME280;68528;48.814;8.904;2023-04-30T09:25:48;96706.06;;;13.08;54.85
79127;BME280;68528;48.814;8.904;2023-04-30T09:28:15;96712.50;;;12.93;55.17
79127;BME280;68528;48.814;8.904;2023-04-30T09:30:41;96703.94;;;12.98;56.31
79127;BME280;68528;48.814;8.904;2023-04-30T09:33:09;96710.22;;;12.69;54.95
79127;BME280;68528;48.814;8.904;2023-04-30T09:35:37;96707.53;;;12.76;54.78
79127;BME280;68528;48.814;8.904;2023-04-30T09:38:04;96711.91;;;12.77;54.15
79127;BME280;68528;48.814;8.904;2023-04-30T09:40:39;96715.03;;;12.75;53.50
79127;BME280;68528;48.814;8.904;2023-04-30T09:43:06;96718.03;;;12.67;55.67
79127;BME280;68528;48.814;8.904;2023-04-30T09:45:45;96711.94;;;12.80;54.41
79127;BME280;68528;48.814;8.904;2023-04-30T09:48:16;96704.06;;;12.79;52.75
79127;BME280;68528;48.814;8.904;2023-04-30T09:50:42;96717.28;;;12.96;53.99
79127;BME280;68528;48.814;8.904;2023-04-30T09:53:12;96715.41;;;13.03;52.17
79127;BME280;68528;48.814;8.904;2023-04-30T09:55:42;96708.41;;;13.06;53.08
79127;BME280;68528;48.814;8.904;2023-04-30T09:58:10;96712.75;;;12.81;52.56
79127;BME280;68528;48.814;8.904;2023-04-30T10:00:37;96714.53;;;12.96;53.43
79127;BME280;68528;48.814;8.904;2023-04-30T10:03:10;96713.25;;;13.16;52.05
79127;BME280;68528;48.814;8.904;2023-04-30T10:05:43;96704.78;;;13.28;52.47
79127;BME280;68528;48.814;8.904;2023-04-30T10:08:28;96709.09;;;13.62;52.09
79127;BME280;68528;48.814;8.904;2023-04-30T10:11:02;96711.97;;;13.73;51.75
79127;BME280;68528;48.814;8.904;2023-04-30T10:13:54;96710.47;;;13.46;49.68
79127;BME280;68528;48.814;8.904;2023-04-30T10:18:59;96707.38;;;13.47;50.87
79127;BME280;68528;48.814;8.904;2023-04-30T10:21:28;96716.94;;;13.60;51.01
79127;BME280;68528;48.814;8.904;2023-04-30T10:23:54;96707.78;;;13.86;50.35
79127;BME280;68528;48.814;8.904;2023-04-30T10:26:21;96705.03;;;13.49;50.44
79127;BME280;68528;48.814;8.904;2023-04-30T10:28:47;96697.81;;;13.37;52.43
79127;BME280;68528;48.814;8.904;2023-04-30T10:31:15;96708.66;;;13.93;50.30
79127;BME280;68528;48.814;8.904;2023-04-30T10:36:47;96694.84;;;13.90;49.03
79127;BME280;68528;48.814;8.904;2023-04-30T10:39:15;96688.53;;;13.49;50.77
79127;BME280;68528;48.814;8.904;2023-04-30T10:41:45;96695.22;;;13.85;49.58
79127;BME280;68528;48.814;8.904;2023-04-30T10:44:19;96694.63;;;14.09;48.40
79127;BME280;68528;48.814;8.904;2023-04-30T10:46:47;96691.53;;;14.10;48.92
79127;BME280;68528;48.814;8.904;2023-04-30T10:49:13;96680.22;;;14.26;49.30
79127;BME280;68528;48.814;8.904;2023-04-30T10:51:49;96674.09;;;13.99;48.58
79127;BME280;68528;48.814;8.904;2023-04-30T10:54:30;96674.19;;;13.66;49.31
79127;BME280;68528;48.814;8.904;2023-04-30T10:57:12;96682.69;;;13.91;48.08
79127;BME280;68528;48.814;8.904;2023-04-30T11:00:23;96674.13;;;14.03;48.16
79127;BME280;68528;48.814;8.904;2023-04-30T11:02:40;96668.22;;;14.01;48.84
79127;BME280;68528;48.814;8.904;2023-04-30T11:05:14;96688.25;;;13.98;48.17
79127;BME280;68528;48.814;8.904;2023-04-30T11:07:57;96674.22;;;14.10;47.76
79127;BME280;68528;48.814;8.904;2023-04-30T11:10:25;96662.09;;;14.22;47.80
79127;BME280;68528;48.814;8.904;2023-04-30T11:12:53;96667.81;;;13.99;47.56
79127;BME280;68528;48.814;8.904;2023-04-30T11:15:20;96674.03;;;13.92;48.41
79127;BME280;68528;48.814;8.904;2023-04-30T11:17:48;96660.34;;;13.99;47.36
79127;BME280;68528;48.814;8.904;2023-04-30T11:20:19;96660.03;;;14.11;48.12
79127;BME280;68528;48.814;8.904;2023-04-30T11:22:45;96657.22;;;14.48;48.31
79127;BME280;68528;48.814;8.904;2023-04-30T11:25:11;96662.84;;;14.66;46.05
79127;BME280;68528;48.814;8.904;2023-04-30T11:27:41;96663.16;;;14.54;45.87
79127;BME280;68528;48.814;8.904;2023-04-30T11:30:16;96666.03;;;14.21;46.04
79127;BME280;68528;48.814;8.904;2023-04-30T11:32:44;96649.84;;;14.15;46.02
79127;BME280;68528;48.814;8.904;2023-04-30T11:35:16;96657.91;;;14.35;47.81
79127;BME280;68528;48.814;8.904;2023-04-30T11:37:43;96656.09;;;14.53;47.66
79127;BME280;68528;48.814;8.904;2023-04-30T11:40:11;96653.66;;;14.44;48.02
79127;BME280;68528;48.814;8.904;2023-04-30T11:42:56;96650.31;;;14.21;46.10
79127;BME280;68528;48.814;8.904;2023-04-30T11:45:22;96655.00;;;14.17;46.71
79127;BME280;68528;48.814;8.904;2023-04-30T11:47:52;96662.09;;;14.22;47.30
79127;BME280;68528;48.814;8.904;2023-04-30T11:50:21;96649.38;;;14.50;46.81
79127;BME280;68528;48.814;8.904;2023-04-30T11:52:54;96647.81;;;14.53;47.12
79127;BME280;68528;48.814;8.904;2023-04-30T11:55:21;96647.06;;;14.08;45.70
79127;BME280;68528;48.814;8.904;2023-04-30T11:57:49;96648.22;;;14.07;47.22
79127;BME280;68528;48.814;8.904;2023-04-30T12:00:18;96647.78;;;14.49;47.83
79127;BME280;68528;48.814;8.904;2023-04-30T12:02:46;96637.47;;;14.36;45.67
79127;BME280;68528;48.814;8.904;2023-04-30T12:05:20;96642.47;;;14.81;45.17
79127;BME280;68528;48.814;8.904;2023-04-30T12:07:51;96632.16;;;14.71;44.91
79127;BME280;68528;48.814;8.904;2023-04-30T12:10:19;96636.94;;;14.74;46.55
79127;BME280;68528;48.814;8.904;2023-04-30T12:12:46;96628.00;;;14.33;46.55
79127;BME280;68528;48.814;8.904;2023-04-30T12:17:39;96634.31;;;14.41;44.86
79127;BME280;68528;48.814;8.904;2023-04-30T12:20:07;96639.44;;;13.91;46.89
79127;BME280;68528;48.814;8.904;2023-04-30T12:22:33;96642.19;;;13.95;47.30
79127;BME280;68528;48.814;8.904;2023-04-30T12:25:14;96645.75;;;13.95;46.20
79127;BME280;68528;48.814;8.904;2023-04-30T12:27:57;96653.88;;;13.81;46.41
79127;BME280;68528;48.814;8.904;2023-04-30T12:30:24;96652.97;;;14.10;46.78
79127;BME280;68528;48.814;8.904;2023-04-30T12:32:56;96650.16;;;14.03;46.48
79127;BME280;68528;48.814;8.904;2023-04-30T12:35:22;96647.59;;;14.28;46.95
79127;BME280;68528;48.814;8.904;2023-04-30T12:38:10;96643.13;;;14.57;45.40
79127;BME280;68528;48.814;8.904;2023-04-30T12:40:55;96638.59;;;14.31;46.11
79127;BME280;68528;48.814;8.904;2023-04-30T12:43:21;96639.00;;;14.30;45.28
79127;BME280;68528;48.814;8.904;2023-04-30T12:45:53;96629.59;;;14.38;46.06
79127;BME280;68528;48.814;8.904;2023-04-30T12:48:21;96627.28;;;14.47;46.59
79127;BME280;68528;48.814;8.904;2023-04-30T12:51:07;96628.59;;;14.63;47.51
79127;BME280;68528;48.814;8.904;2023-04-30T12:53:43;96633.19;;;14.45;48.02
79127;BME280;68528;48.814;8.904;2023-04-30T12:56:11;96625.72;;;14.46;47.82
79127;BME280;68528;48.814;8.904;2023-04-30T12:58:40;96621.50;;;14.15;46.56
79127;BME280;68528;48.814;8.904;2023-04-30T13:01:11;96625.53;;;14.25;47.34
79127;BME280;68528;48.814;8.904;2023-04-30T13:03:37;96613.88;;;14.42;46.43
79127;BME280;68528;48.814;8.904;2023-04-30T13:06:04;96610.56;;;14.26;47.85
79127;BME280;68528;48.814;8.904;2023-04-30T13:08:31;96619.41;;;14.49;46.42
79127;BME280;68528;48.814;8.904;2023-04-30T13:10:56;96604.56;;;14.64;46.49
79127;BME280;68528;48.814;8.904;2023-04-30T13:13:22;96609.38;;;14.74;46.26
79127;BME280;68528;48.814;8.904;2023-04-30T13:15:53;96602.25;;;14.73;45.54
79127;BME280;68528;48.814;8.904;2023-04-30T13:18:18;96597.53;;;14.77;46.10
79127;BME280;68528;48.814;8.904;2023-04-30T13:20:44;96599.28;;;15.10;45.73
79127;BME280;68528;48.814;8.904;2023-04-30T13:23:09;96591.38;;;15.08;44.88
79127;BME280;68528;48.814;8.904;2023-04-30T13:25:38;96599.66;;;15.08;47.06
79127;BME280;68528;48.814;8.904;2023-04-30T13:28:04;96598.09;;;15.07;45.15
79127;BME280;68528;48.814;8.904;2023-04-30T13:30:29;96594.53;;;15.07;45.12
79127;BME280;68528;48.814;8.904;2023-04-30T13:32:55;96597.59;;;14.84;44.88
79127;BME280;68528;48.814;8.904;2023-04-30T13:35:23;96599.25;;;15.03;45.45
79127;BME280;68528;48.814;8.904;2023-04-30T13:37:48;96603.00;;;14.63;44.69
79127;BME280;68528;48.814;8.904;2023-04-30T13:40:17;96598.34;;;14.81;45.17
79127;BME280;68528;48.814;8.904;2023-04-30T13:42:44;96593.94;;;14.62;45.33
79127;BME280;68528;48.814;8.904;2023-04-30T13:45:10;96588.72;;;14.47;46.02
79127;BME280;68528;48.814;8.904;2023-04-30T13:47:36;96584.09;;;14.65;45.97
79127;BME280;68528;48.814;8.904;2023-04-30T13:50:22;96590.34;;;14.55;45.30
79127;BME280;68528;48.814;8.904;2023-04-30T13:52:47;96582.91;;;14.59;46.67
79127;BME280;68528;48.814;8.904;2023-04-30T13:55:13;96585.00;;;14.86;47.02
79127;BME280;68528;48.814;8.904;2023-04-30T13:57:38;96589.31;;;14.19;46.74
79127;BME280;68528;48.814;8.904;2023-04-30T14:00:05;96584.72;;;14.34;46.92
79127;BME280;68528;48.814;8.904;2023-04-30T14:02:51;96572.97;;;14.44;46.13